createdAt,value
2022-09-21T00:03:37.751Z,99307.02
2022-09-21T00:08:41.407Z,99310.54
2022-09-21T00:13:46.969Z,99309.54
2022-09-21T00:18:50.141Z,99304.84
2022-09-21T00:23:54.441Z,99307.89
2022-09-21T00:28:59.575Z,99312.10
2022-09-21T00:34:03.827Z,99311.49
2022-09-21T00:39:07.166Z,99315.45
2022-09-21T00:44:18.853Z,99316.37
2022-09-21T00:49:22.620Z,99320.52
2022-09-21T00:54:34.346Z,99321.48
2022-09-21T00:59:39.755Z,99320.39
2022-09-21T01:04:43.428Z,99313.27
2022-09-21T01:09:50.151Z,99320.82
2022-09-21T01:15:18.520Z,99326.41
2022-09-21T01:20:42.852Z,99328.14
2022-09-21T01:26:06.841Z,99330.52
2022-09-21T01:31:20.933Z,99331.15
2022-09-21T01:36:28.586Z,99331.80
2022-09-21T01:41:32.954Z,99325.52
2022-09-21T01:46:38.314Z,99327.64
2022-09-21T01:51:48.518Z,99330.77
2022-09-21T01:57:06.871Z,99331.75
2022-09-21T02:02:15.988Z,99334.39
2022-09-21T02:07:19.610Z,99340.25
2022-09-21T02:12:23.148Z,99342.42
2022-09-21T02:17:53.203Z,99343.48
2022-09-21T02:22:55.939Z,99346.33
2022-09-21T02:28:09.280Z,99346.16
2022-09-21T02:33:19.941Z,99347.56
2022-09-21T02:38:33.634Z,99343.45
2022-09-21T02:43:46.948Z,99343.09
2022-09-21T02:48:56.910Z,99348.91
2022-09-21T02:54:04.711Z,99353.42
2022-09-21T02:59:08.333Z,99354.57
2022-09-21T03:04:11.399Z,99357.45
2022-09-21T03:09:14.353Z,99363.71
2022-09-21T03:14:17.355Z,99369.29
2022-09-21T03:19:20.283Z,99370.61
2022-09-21T03:24:42.111Z,99375.27
2022-09-21T03:29:46.033Z,99379.48
2022-09-21T03:34:48.880Z,99384.31
2022-09-21T03:39:52.074Z,99386.80
2022-09-21T03:44:54.912Z,99393.11
2022-09-21T03:49:57.691Z,99394.91
2022-09-21T03:55:00.567Z,99388.64
2022-09-21T04:00:07.880Z,99395.73
2022-09-21T04:05:15.061Z,99398.86
2022-09-21T04:10:21.446Z,99404.63
2022-09-21T04:15:24.453Z,99409.65
2022-09-21T04:20:28.393Z,99415.38
2022-09-21T04:25:31.208Z,99424.40
2022-09-21T04:30:37.726Z,99422.10
2022-09-21T04:35:41.238Z,99419.30
2022-09-21T04:40:44.044Z,99420.02
2022-09-21T04:45:47.004Z,99414.33
2022-09-21T04:50:51.100Z,99420.80
2022-09-21T04:55:54.769Z,99433.08
2022-09-21T05:00:57.852Z,99425.19
2022-09-21T05:06:01.088Z,99430.36
2022-09-21T05:11:05.652Z,99429.47
2022-09-21T05:16:09.529Z,99430.48
2022-09-21T05:21:14.004Z,99431.65
2022-09-21T05:26:16.898Z,99439.36
2022-09-21T05:31:32.925Z,99441.11
2022-09-21T05:36:46.497Z,99438.90
2022-09-21T05:41:49.764Z,99437.08
2022-09-21T05:47:13.458Z,99444.66
2022-09-21T05:52:40.315Z,99446.83
2022-09-21T05:58:06.207Z,99446.08
2022-09-21T06:03:32.431Z,99444.47
2022-09-21T06:08:35.504Z,99452.42
2022-09-21T06:13:38.532Z,99458.09
2022-09-21T06:18:42.543Z,99456.62
2022-09-21T06:23:49.405Z,99454.08
2022-09-21T06:28:52.225Z,99453.48
2022-09-21T06:33:55.181Z,99456.50
2022-09-21T06:38:58.084Z,99458.09
2022-09-21T06:44:01.456Z,99464.16
2022-09-21T06:49:04.550Z,99463.27
2022-09-21T06:54:08.193Z,99467.05
2022-09-21T06:59:16.278Z,99473.98
2022-09-21T07:04:24.999Z,99477.53
2022-09-21T07:14:51.248Z,99483.79
2022-09-21T07:19:54.043Z,99484.42
2022-09-21T07:24:58.092Z,99486.80
2022-09-21T07:30:00.956Z,99493.77
2022-09-21T07:35:04.396Z,99497.48
2022-09-21T07:40:08.141Z,99500.98
2022-09-21T07:45:11.464Z,99505.58
2022-09-21T07:50:14.782Z,99507.31
2022-09-21T07:55:17.712Z,99505.06
2022-09-21T08:00:21.290Z,99509.33
2022-09-21T08:05:24.524Z,99510.66
2022-09-21T08:10:28.818Z,99510.98
2022-09-21T08:15:48.677Z,99514.61
2022-09-21T08:20:56.222Z,99515.48
2022-09-21T08:26:05.686Z,99516.52
2022-09-21T08:31:10.150Z,99518.96
2022-09-21T08:36:13.234Z,99521.25
2022-09-21T08:41:46.412Z,99524.79
2022-09-21T08:47:03.752Z,99526.13
2022-09-21T08:52:16.180Z,99525.67
2022-09-21T08:57:22.198Z,99532.26
2022-09-21T09:02:46.075Z,99536.80
2022-09-21T09:08:18.167Z,99532.69
2022-09-21T09:13:42.747Z,99532.36
2022-09-21T09:18:53.035Z,99527.29
2022-09-21T09:24:05.645Z,99526.05
2022-09-21T09:29:25.144Z,99528.60
2022-09-21T09:34:39.051Z,99531.66
2022-09-21T09:39:45.624Z,99531.21
2022-09-21T09:45:13.475Z,99529.11
2022-09-21T09:50:32.038Z,99530.58
2022-09-21T09:55:49.061Z,99529.27
2022-09-21T10:00:54.368Z,99530.27
2022-09-21T10:06:00.309Z,99530.60
2022-09-21T10:11:04.280Z,99527.08
2022-09-21T10:16:10.171Z,99529.76
2022-09-21T10:21:21.554Z,99530.20
2022-09-21T10:26:24.621Z,99533.98
2022-09-21T10:31:30.099Z,99540.79
2022-09-21T10:36:36.349Z,99541.73
2022-09-21T10:41:39.192Z,99540.40
2022-09-21T10:46:42.232Z,99540.33
2022-09-21T10:51:47.223Z,99538.77
2022-09-21T10:56:53.666Z,99540.20
2022-09-21T11:02:00.419Z,99534.77
2022-09-21T11:07:39.248Z,99534.46
2022-09-21T11:13:18.976Z,99537.77
2022-09-21T11:18:34.485Z,99535.92
2022-09-21T11:24:05.328Z,99532.10
2022-09-21T11:29:47.488Z,99525.63
2022-09-21T11:34:56.186Z,99519.88
2022-09-21T11:40:25.582Z,99518.92
2022-09-21T11:45:34.374Z,99515.87
2022-09-21T11:56:13.041Z,99514.75
2022-09-21T12:01:36.340Z,99509.70
2022-09-21T12:07:13.136Z,99497.89
2022-09-21T12:12:25.896Z,99492.14
2022-09-21T12:18:07.650Z,99491.26
2022-09-21T12:23:19.493Z,99480.92
2022-09-21T12:28:32.136Z,99479.23
2022-09-21T12:33:48.418Z,99485.47
2022-09-21T12:38:58.546Z,99482.05
2022-09-21T12:44:33.875Z,99479.81
2022-09-21T12:49:46.564Z,99481.46
2022-09-21T12:55:21.920Z,99475.88
2022-09-21T13:00:30.954Z,99476.00
2022-09-21T13:05:43.631Z,99469.92
2022-09-21T13:10:54.755Z,99468.70
2022-09-21T13:15:59.743Z,99463.45
2022-09-21T13:21:17.068Z,99458.41
2022-09-21T13:26:38.186Z,99460.90
2022-09-21T13:31:54.458Z,99462.50
2022-09-21T13:37:16.060Z,99463.42
2022-09-21T13:42:31.137Z,99469.58
2022-09-21T13:47:38.641Z,99469.52
2022-09-21T13:52:48.198Z,99467.71
2022-09-21T13:57:55.823Z,99462.84
2022-09-21T14:03:04.632Z,99455.45
2022-09-21T14:08:22.278Z,99444.48
2022-09-21T14:13:36.285Z,99435.02
2022-09-21T14:18:39.291Z,99423.30
2022-09-21T14:24:02.319Z,99423.23
2022-09-21T14:29:19.649Z,99434.88
2022-09-21T14:34:26.564Z,99443.08
2022-09-21T14:39:33.762Z,99440.25
2022-09-21T14:44:39.435Z,99434.38
2022-09-21T14:49:54.669Z,99429.91
2022-09-21T14:55:15.938Z,99433.64
2022-09-21T15:00:26.637Z,99432.67
2022-09-21T15:05:43.464Z,99433.02
2022-09-21T15:11:13.766Z,99435.09
2022-09-21T15:16:22.624Z,99438.05
2022-09-21T15:21:30.403Z,99452.21
2022-09-21T15:26:34.568Z,99455.01
2022-09-21T15:31:40.905Z,99459.05
2022-09-21T15:36:44.957Z,99461.31
2022-09-21T15:41:50.728Z,99471.31
2022-09-21T15:47:01.176Z,99473.07
2022-09-21T15:52:29.475Z,99478.29
2022-09-21T15:57:40.633Z,99488.45
2022-09-21T16:02:55.965Z,99509.23
2022-09-21T16:08:35.600Z,99515.64
2022-09-21T16:13:56.917Z,99515.77
2022-09-21T16:19:00.325Z,99523.09
2022-09-21T16:24:18.998Z,99519.70
2022-09-21T16:29:26.529Z,99516.77
2022-09-21T16:34:35.344Z,99512.54
2022-09-21T16:39:38.272Z,99516.16
2022-09-21T16:44:44.918Z,99525.55
2022-09-21T16:49:47.987Z,99529.17
2022-09-21T16:54:51.773Z,99536.69
2022-09-21T16:59:54.795Z,99538.84
2022-09-21T17:04:59.441Z,99538.73
2022-09-21T17:10:14.922Z,99542.14
2022-09-21T17:15:17.939Z,99555.55
2022-09-21T17:20:33.389Z,99564.20
2022-09-21T17:25:37.238Z,99569.16
2022-09-21T17:30:42.658Z,99578.35
2022-09-21T17:35:45.992Z,99577.20
2022-09-21T17:40:49.186Z,99579.02
2022-09-21T17:46:08.548Z,99578.87
2022-09-21T17:51:12.269Z,99583.20
2022-09-21T17:56:45.585Z,99585.20
2022-09-21T18:01:48.792Z,99594.52
2022-09-21T18:06:51.945Z,99594.66
2022-09-21T18:12:04.230Z,99593.15
2022-09-21T18:17:24.387Z,99595.02
2022-09-21T18:23:14.377Z,99592.09
2022-09-21T18:28:27.458Z,99592.30
2022-09-21T18:34:13.220Z,99594.73
2022-09-21T18:39:26.364Z,99593.50
2022-09-21T18:44:39.637Z,99594.86
2022-09-21T18:50:00.454Z,99592.72
2022-09-21T18:55:26.881Z,99592.32
2022-09-21T19:00:35.487Z,99593.05
2022-09-21T19:05:46.366Z,99592.77
2022-09-21T19:10:57.430Z,99595.71
2022-09-21T19:16:45.928Z,99591.16
2022-09-21T19:22:00.846Z,99583.96
2022-09-21T19:27:39.249Z,99582.48
2022-09-21T19:32:46.501Z,99580.46
2022-09-21T19:37:52.279Z,99577.47
2022-09-21T19:43:22.722Z,99573.08
2022-09-21T19:48:27.914Z,99571.73
2022-09-21T19:53:50.960Z,99569.02
2022-09-21T19:59:12.843Z,99571.77
2022-09-21T20:04:15.889Z,99571.27
2022-09-21T20:09:26.227Z,99575.88
2022-09-21T20:14:38.136Z,99579.67
2022-09-21T20:19:51.635Z,99581.48
2022-09-21T20:25:10.553Z,99581.91
2022-09-21T20:30:16.788Z,99580.40
2022-09-21T20:35:23.270Z,99580.19
2022-09-21T20:40:29.021Z,99577.20
2022-09-21T20:45:33.252Z,99574.69
2022-09-21T20:50:37.498Z,99574.94
2022-09-21T20:55:41.387Z,99576.26
2022-09-21T21:00:46.249Z,99571.08
2022-09-21T21:05:49.144Z,99572.98
2022-09-21T21:10:55.788Z,99573.41
2022-09-21T21:16:00.336Z,99574.09
2022-09-21T21:21:04.772Z,99572.36
2022-09-21T21:26:08.085Z,99569.73
2022-09-21T21:31:12.061Z,99563.23
2022-09-21T21:36:15.206Z,99569.39
2022-09-21T21:41:18.455Z,99564.59
2022-09-21T21:46:21.392Z,99565.34
2022-09-21T21:51:24.323Z,99563.71
2022-09-21T21:56:27.904Z,99559.28
2022-09-21T22:01:31.351Z,99555.26
2022-09-21T22:06:36.553Z,99548.16
2022-09-21T22:11:39.476Z,99548.64
2022-09-21T22:16:42.443Z,99539.23
2022-09-21T22:21:51.735Z,99534.98
2022-09-21T22:26:57.038Z,99533.27
2022-09-21T22:32:00.745Z,99534.50
2022-09-21T22:37:03.796Z,99530.52
2022-09-21T22:42:06.731Z,99533.75
2022-09-21T22:47:09.598Z,99532.84
2022-09-21T22:52:12.918Z,99523.84
2022-09-21T22:57:15.778Z,99522.27
2022-09-21T23:02:18.706Z,99522.75
2022-09-21T23:07:21.556Z,99518.48
2022-09-21T23:12:24.390Z,99522.48
2022-09-21T23:17:29.094Z,99522.74
2022-09-21T23:22:32.016Z,99522.69
2022-09-21T23:27:34.876Z,99521.55
2022-09-21T23:32:37.841Z,99521.23
2022-09-21T23:37:40.763Z,99524.85
2022-09-21T23:42:43.662Z,99535.21
2022-09-21T23:47:46.510Z,99531.66
2022-09-21T23:52:49.415Z,99532.16
2022-09-21T23:57:52.249Z,99528.74
